Startpagina
METAR-TAF:

METAR-TAF

Vliegvelden :

Saarbrücken, Duitsland

Flughafen Saarbrücken

breedte: 49-13N, lengte: 007-07E, hoogte: 322 m

Actueel weer

Dit bericht is 28 minuten geleden gemaakt, om 18:50 UTC
Wind 2 kt uit het oosten
Temperatuur 19°C
Vochtigheid 64%
Druk 1016 hPa
Zicht 10 km of meer
geen wolken onder 1500 m en geen cumulonimbus

METAR: EDDR 221850Z 09002KT CAVOK 19/12 Q1016 NOSIG

Tijdstip: 21:18 (19:18 UTC)

Verwachting

Dit bericht is 2 uur en het 18 minuten geleden gemaakt, om 17:00 UTC
Verwachting geldig van 22 om 18 UTC tot 23 om 18 UTC
Wind 4 kt uit het oosten
Zicht 10 km of meer
geen wolken onder 1500 m en geen cumulonimbus
Wijzigt naar
van 23 om 07 UTC tot 23 om 09 UTC
Wind 6 kt uit het westzuidwesten
Wijzigt naar
van 23 om 16 UTC tot 23 om 18 UTC
Wind 6 kt uit het westnoordwesten

TAF: EDDR 221700Z 2218/2318 10004KT CAVOK BECMG 2307/2309 24006KT BECMG 2316/2318 30006KT

Waarnemingen en weersverwachtingen van meer dan 4000 vliegvelden (METAR en TAF).

De beschikbare stations zijn de gele en rode punten op de kaart.

Ga met uw muis naar het station om de naam te zien.

Klik dan om waarnemingen en weersverwachtingen te zien.

kaart wijzigen: klik op de groene knoppen met een zwart kruis om in te zoomen, op de groene knop met een streepje om uit te zoomen of op de groene pijlen voor aangrenzende kaarten.


METAR-TAF: